Time;durP1;ratioP1;P1;durP2;ratioP2;P2;SDS_P1;SDS_P2;PMS_P1;PMS_P2;Temp;Humidity;BMP_temperature;BMP_pressure;BME280_temperature;BME280_humidity;BME280_pressure;Samples;Min_cycle;Max_cycle;Signal;HPM_P1;HPM_P2
2022/12/02 00:00:32;;;;;;;18.58;14.07;;;;;;;29.80;63.14;100697.47;5082396;27;66590;-34
2022/12/02 00:03:04;;;;;;;22.42;13.05;;;;;;;29.93;63.39;100711.97;5083578;27;69851;-34
2022/12/02 00:05:35;;;;;;;17.85;11.18;;;;;;;29.55;63.07;100664.09;5081116;27;66473;-35
2022/12/02 00:08:20;;;;;;;19.58;10.93;;;;;;;29.83;62.94;100720.53;5087204;27;69393;-36
2022/12/02 00:10:55;;;;;;;22.50;9.75;;;;;;;29.84;62.79;100723.03;5084450;27;66309;-37
2022/12/02 00:13:56;;;;;;;18.77;11.05;;;;;;;29.80;63.46;100732.59;5082277;27;70379;-33
2022/12/02 00:16:27;;;;;;;26.45;9.85;;;;;;;29.87;63.28;100713.66;5081547;27;66124;-35
2022/12/02 00:18:59;;;;;;;16.30;9.23;;;;;;;29.98;64.16;100731.91;5083369;27;69205;-34
2022/12/02 00:21:30;;;;;;;30.92;14.05;;;;;;;29.97;63.82;100740.22;5085070;27;65435;-36
2022/12/02 00:24:02;;;;;;;22.17;15.98;;;;;;;30.03;63.68;100755.56;5087173;27;69141;-36
2022/12/02 00:26:33;;;;;;;23.23;16.92;;;;;;;30.05;63.46;100753.47;5085644;27;65636;-34
2022/12/02 00:29:05;;;;;;;21.23;15.30;;;;;;;30.10;63.70;100753.66;5084429;27;69864;-34
2022/12/02 00:31:36;;;;;;;27.30;15.13;;;;;;;30.10;63.55;100756.34;5082885;27;65676;-34
2022/12/02 00:34:08;;;;;;;28.90;13.75;;;;;;;30.11;63.39;100760.72;5089661;27;68895;-37
2022/12/02 00:36:39;;;;;;;30.38;11.70;;;;;;;30.09;63.64;100760.13;5085015;27;65285;-35
2022/12/02 00:39:11;;;;;;;20.05;11.52;;;;;;;30.15;63.83;100761.13;5084120;27;70025;-35
2022/12/02 00:41:43;;;;;;;11.50;8.50;;;;;;;30.16;61.68;100768.19;5085413;27;66058;-35
2022/12/02 00:47:03;;;;;;;15.43;8.05;;;;;;;30.04;60.36;100733.72;5087076;27;65960;-34
2022/12/02 00:49:35;;;;;;;10.98;7.68;;;;;;;30.15;60.61;100753.84;5084409;27;69346;-34
2022/12/02 00:52:06;;;;;;;8.43;7.63;;;;;;;30.31;60.42;100776.84;5086348;27;66050;-34
2022/12/02 00:54:39;;;;;;;8.13;7.32;;;;;;;30.32;60.12;100769.56;5072074;28;69810;-34
2022/12/02 00:57:10;;;;;;;;;;;;;;;30.05;61.07;100792.16;5093252;27;65577;-35
2022/12/02 00:59:42;;;;;;;7.60;6.88;;;;;;;30.34;60.10;100786.41;5085628;27;70111;-35
2022/12/02 01:02:14;;;;;;;7.72;6.97;;;;;;;30.33;59.81;100771.22;5085471;27;66559;-34
2022/12/02 01:04:45;;;;;;;7.15;6.63;;;;;;;30.38;59.65;100774.09;5089191;27;70209;-35
2022/12/02 01:07:16;;;;;;;;;;;;;;;30.12;61.54;100770.50;5086224;27;65845;-34
2022/12/02 01:09:48;;;;;;;6.68;6.05;;;;;;;30.43;59.76;100774.28;5082772;27;69740;-34
2022/12/02 01:12:19;;;;;;;6.22;5.72;;;;;;;30.46;59.71;100771.13;5089387;27;65209;-35
2022/12/02 01:14:52;;;;;;;7.25;6.55;;;;;;;30.50;59.74;100780.44;5083229;27;69512;-34
2022/12/02 01:17:23;;;;;;;6.65;6.15;;;;;;;30.51;59.81;100798.38;5085346;27;65390;-35
2022/12/02 01:19:55;;;;;;;8.00;5.72;;;;;;;30.50;59.06;100791.28;5087017;27;69348;-36
2022/12/02 01:22:27;;;;;;;6.50;5.95;;;;;;;30.47;59.63;100800.66;5086711;27;66316;-35
2022/12/02 01:24:59;;;;;;;6.80;6.28;;;;;;;30.56;59.28;100817.47;5083580;27;69772;-34
2022/12/02 01:27:30;;;;;;;6.97;6.40;;;;;;;30.25;59.19;100759.59;5083849;27;66362;-35
2022/12/02 01:30:01;;;;;;;6.60;6.03;;;;;;;30.58;59.74;100812.66;5083470;27;69889;-34
2022/12/02 01:32:33;;;;;;;6.85;6.35;;;;;;;30.61;59.69;100820.34;5097361;27;66752;-34
2022/12/02 01:35:05;;;;;;;6.90;6.20;;;;;;;30.51;59.30;100801.06;5087522;27;70467;-36
2022/12/02 01:37:36;;;;;;;;;;;;;;;30.30;60.74;100817.66;5086502;27;66512;-34
2022/12/02 01:40:10;;;;;;;6.50;5.97;;;;;;;30.50;59.63;100799.41;5087946;27;70650;-34
2022/12/02 01:42:43;;;;;;;6.40;5.80;;;;;;;30.49;59.45;100787.75;5086209;27;65979;-34
2022/12/02 01:45:15;;;;;;;5.70;5.35;;;;;;;30.69;59.40;100819.25;5084290;27;69846;-33
2022/12/02 01:47:47;;;;;;;6.40;5.90;;;;;;;30.70;59.18;100821.75;5085059;27;64363;-35
2022/12/02 01:50:19;;;;;;;6.35;5.13;;;;;;;30.55;58.94;100794.16;5084341;27;70264;-35
2022/12/02 01:52:51;;;;;;;5.35;4.95;;;;;;;30.73;58.60;100829.44;5083064;27;66949;-34
2022/12/02 01:55:28;;;;;;;5.90;5.47;;;;;;;30.72;58.48;100819.63;5081267;27;70063;-35
2022/12/02 01:58:00;;;;;;;6.43;5.85;;;;;;;30.76;58.48;100833.59;5093083;27;65695;-34
2022/12/02 02:00:32;;;;;;;7.00;5.88;;;;;;;30.71;59.14;100820.69;5088589;27;69605;-35
2022/12/02 02:03:03;;;;;;;5.68;5.38;;;;;;;30.78;58.54;100814.38;5085781;27;65504;-35
2022/12/02 02:05:35;;;;;;;6.57;5.97;;;;;;;30.79;58.85;100807.94;5087494;27;70449;-36
2022/12/02 02:08:11;;;;;;;6.03;5.53;;;;;;;30.44;58.24;100746.16;5087563;27;65532;-35
2022/12/02 02:10:44;;;;;;;6.20;5.65;;;;;;;30.36;58.15;100727.47;5085118;27;69234;-34
2022/12/02 02:13:17;;;;;;;6.05;5.50;;;;;;;30.72;58.39;100787.13;5084841;27;65797;-34
2022/12/02 02:15:48;;;;;;;5.35;5.05;;;;;;;30.88;58.47;100806.63;5087548;27;69284;-35
2022/12/02 02:18:20;;;;;;;5.95;5.40;;;;;;;30.84;58.29;100805.41;5083506;27;66538;-34
2022/12/02 02:20:55;;;;;;;7.38;5.28;;;;;;;30.08;58.09;100680.00;5094081;27;69624;-35
2022/12/02 02:23:27;;;;;;;6.15;5.70;;;;;;;30.94;58.49;100813.88;5087701;27;66479;-34
2022/12/02 02:25:59;;;;;;;6.80;6.20;;;;;;;30.50;57.60;100737.16;5084160;27;69808;-34
2022/12/02 02:28:35;;;;;;;5.38;4.97;;;;;;;30.98;58.07;100820.50;5082438;27;65815;-35
2022/12/02 02:31:06;;;;;;;5.82;5.38;;;;;;;30.99;58.20;100827.56;5084917;27;70415;-34
2022/12/02 02:33:42;;;;;;;5.47;5.07;;;;;;;31.02;58.06;100832.53;5087680;27;66545;-35
2022/12/02 02:36:14;;;;;;;5.95;5.40;;;;;;;31.03;57.71;100831.47;5085287;27;70164;-34
2022/12/02 02:38:45;;;;;;;5.53;5.13;;;;;;;31.06;57.66;100830.22;5083347;27;67077;-35
2022/12/02 02:41:17;;;;;;;5.93;5.40;;;;;;;31.07;58.04;100840.00;5083047;27;70193;-35
2022/12/02 02:43:48;;;;;;;;;;;;;;;30.78;59.04;100838.75;5093276;27;65747;-36
2022/12/02 02:46:21;;;;;;;6.00;5.32;;;;;;;31.05;57.76;100823.97;5084781;27;69333;-34
2022/12/02 02:48:52;;;;;;;5.88;5.30;;;;;;;31.10;57.40;100834.97;5085859;27;66649;-35
2022/12/02 02:51:24;;;;;;;5.35;4.95;;;;;;;31.15;57.57;100843.25;5084375;27;69192;-35
2022/12/02 02:53:55;;;;;;;5.28;4.90;;;;;;;31.14;57.57;100843.47;5087033;27;65383;-34
2022/12/02 02:56:27;;;;;;;5.70;5.20;;;;;;;31.20;57.73;100847.16;5088911;27;69243;-34
2022/12/02 02:58:59;;;;;;;5.75;5.22;;;;;;;30.91;57.53;100800.78;5090615;27;65216;-34
2022/12/02 03:01:36;;;;;;;5.03;4.70;;;;;;;31.25;57.43;100839.19;5099079;27;70062;-35
2022/12/02 03:04:12;;;;;;;4.95;4.65;;;;;;;30.96;57.13;100783.84;5086246;27;66431;-34
2022/12/02 03:06:44;;;;;;;5.90;4.70;;;;;;;31.30;57.41;100828.53;5086379;27;70456;-34
2022/12/02 03:09:21;;;;;;;4.93;4.35;;;;;;;31.32;57.34;100829.97;5087194;27;66325;-34
2022/12/02 03:11:54;;;;;;;4.88;4.55;;;;;;;31.34;57.43;100816.16;5083068;27;70205;-34
2022/12/02 03:14:27;;;;;;;5.00;4.53;;;;;;;31.33;57.02;100800.97;5087305;27;65703;-35
2022/12/02 03:17:00;;;;;;;5.38;4.93;;;;;;;30.94;57.41;100729.91;5084520;27;70139;-35
2022/12/02 03:19:34;;;;;;;5.68;5.10;;;;;;;31.31;56.92;100789.50;5084780;27;66884;-38
2022/12/02 03:22:06;;;;;;;5.78;5.40;;;;;;;31.42;56.90;100799.63;5086159;27;69922;-36
2022/12/02 03:24:39;;;;;;;5.72;5.22;;;;;;;31.35;57.07;100779.91;5086010;27;66917;-36
2022/12/02 03:27:12;;;;;;;5.53;5.13;;;;;;;31.49;56.81;100789.56;5086185;27;70427;-36
2022/12/02 03:29:45;;;;;;;5.75;5.20;;;;;;;31.51;56.66;100789.31;5059324;27;66040;-37
2022/12/02 03:32:18;;;;;;;5.63;5.20;;;;;;;31.42;56.91;100769.81;5081887;27;69804;-37
2022/12/02 03:34:49;;;;;;;5.97;4.95;;;;;;;31.52;56.71;100775.53;5083806;27;66753;-34
2022/12/02 03:37:22;;;;;;;;;;;;;;;31.24;57.33;100783.34;5083807;27;70560;-33
2022/12/02 03:39:53;;;;;;;5.07;4.53;;;;;;;31.44;56.75;100777.75;5089081;27;65612;-34
2022/12/02 03:42:25;;;;;;;5.03;4.72;;;;;;;31.49;56.86;100765.16;5084909;27;70023;-35
2022/12/02 03:44:57;;;;;;;5.75;4.63;;;;;;;31.60;56.38;100782.56;5086320;27;66482;-33
2022/12/02 03:47:30;;;;;;;4.65;4.35;;;;;;;31.61;56.50;100770.63;5083167;27;69507;-36
2022/12/02 03:50:07;;;;;;;5.47;5.07;;;;;;;31.64;56.57;100764.75;5082150;27;66135;-34
2022/12/02 03:52:39;;;;;;;5.10;4.38;;;;;;;31.68;56.57;100756.97;5083548;27;70500;-35
2022/12/02 03:55:11;;;;;;;7.25;5.22;;;;;;;31.68;56.43;100747.00;5084479;27;66346;-41
2022/12/02 03:57:42;;;;;;;5.20;4.80;;;;;;;31.15;56.49;100661.72;5083412;27;70532;-36
2022/12/02 04:00:14;;;;;;;5.00;4.60;;;;;;;31.55;56.59;100722.75;5089156;27;65618;-35
2022/12/02 04:02:45;;;;;;;;;;;;;;;31.41;57.28;100743.78;5081580;27;69535;-34
2022/12/02 04:05:17;;;;;;;4.80;4.40;;;;;;;31.69;56.67;100736.97;5084510;27;66129;-34
2022/12/02 04:07:48;;;;;;;4.90;4.50;;;;;;;31.73;56.64;100724.59;5084111;27;70086;-38
2022/12/02 04:10:20;;;;;;;5.40;4.72;;;;;;;31.78;56.54;100722.00;5068657;27;64415;-35
2022/12/02 04:12:52;;;;;;;5.47;4.30;;;;;;;31.73;56.40;100708.31;5088906;27;69377;-36
2022/12/02 04:15:23;;;;;;;4.30;4.00;;;;;;;31.79;56.39;100716.38;5081115;27;66524;-35
2022/12/02 04:17:55;;;;;;;4.72;4.32;;;;;;;31.72;56.29;100693.09;5086450;27;69709;-35
2022/12/02 04:20:26;;;;;;;5.13;4.72;;;;;;;31.84;55.98;100702.09;5081019;27;65180;-34
2022/12/02 04:22:58;;;;;;;7.07;4.57;;;;;;;31.86;56.52;100689.13;5080155;27;69881;-34
2022/12/02 04:25:29;;;;;;;5.68;4.40;;;;;;;31.89;56.18;100677.00;5080769;27;65383;-35
2022/12/02 04:28:00;;;;;;;;;;;;;;;31.58;56.71;100666.19;5084963;27;70182;-34
2022/12/02 04:30:32;;;;;;;5.10;4.65;;;;;;;31.89;56.42;100672.41;5081381;27;66562;-36
2022/12/02 04:33:03;;;;;;;4.65;4.25;;;;;;;31.90;56.02;100657.78;5086686;27;69049;-36
2022/12/02 04:35:35;;;;;;;4.82;4.53;;;;;;;31.78;56.25;100627.09;5082353;27;66999;-36
2022/12/02 04:38:07;;;;;;;4.78;4.00;;;;;;;31.94;56.35;100648.16;5084434;27;69914;-34
2022/12/02 04:40:42;;;;;;;4.68;4.28;;;;;;;31.97;56.15;100644.97;5080417;27;66335;-35
2022/12/02 04:43:14;;;;;;;4.38;4.07;;;;;;;31.97;56.08;100634.13;5085081;27;69267;-34
2022/12/02 04:45:45;;;;;;;5.10;4.70;;;;;;;31.95;56.11;100621.84;5085758;27;66272;-36
2022/12/02 04:48:17;;;;;;;4.55;3.75;;;;;;;31.99;55.78;100613.00;5082283;27;70893;-35
2022/12/02 04:50:48;;;;;;;4.43;3.97;;;;;;;31.99;56.05;100613.00;5084018;27;65329;-35
2022/12/02 04:53:19;;;;;;;9.50;4.50;;;;;;;31.96;56.11;100591.78;5076295;27;67850;-37
2022/12/02 04:55:51;;;;;;;5.70;3.95;;;;;;;31.77;55.98;100544.09;5083027;27;65325;-36
2022/12/02 04:58:22;;;;;;;4.15;3.80;;;;;;;32.08;55.89;100599.91;5087742;27;69927;-36
2022/12/02 05:00:54;;;;;;;4.85;4.38;;;;;;;32.11;56.07;100590.50;5085110;27;65924;-36
2022/12/02 05:03:26;;;;;;;4.15;3.75;;;;;;;32.03;55.85;100581.63;5080905;27;69661;-36
2022/12/02 05:05:57;;;;;;;4.60;4.15;;;;;;;32.08;55.78;100572.78;5083432;27;66322;-38
2022/12/02 05:08:28;;;;;;;4.43;3.97;;;;;;;32.11;55.74;100566.88;5077039;27;69676;-34
2022/12/02 05:11:00;;;;;;;4.35;3.95;;;;;;;32.05;55.94;100549.66;5083297;27;66714;-36
2022/12/02 05:13:32;;;;;;;6.22;4.25;;;;;;;32.19;55.73;100568.44;5080921;27;69867;-35
2022/12/02 05:16:04;;;;;;;4.00;3.70;;;;;;;32.21;55.72;100558.16;5081203;27;66526;-37
2022/12/02 05:18:37;;;;;;;4.80;3.60;;;;;;;32.23;55.86;100550.59;5082028;27;69697;-37
2022/12/02 05:21:09;;;;;;;6.72;4.05;;;;;;;32.22;56.07;100540.81;5087536;27;66519;-36
2022/12/02 05:23:40;;;;;;;4.35;3.95;;;;;;;32.23;55.90;100537.88;5084668;27;70280;-37
2022/12/02 05:26:12;;;;;;;6.82;3.78;;;;;;;32.12;55.83;100513.44;5091541;27;66506;-37
2022/12/02 05:28:43;;;;;;;;;;;;;;;31.94;56.27;100523.38;5087204;27;70197;-36
2022/12/02 05:31:14;;;;;;;3.80;3.35;;;;;;;32.24;56.10;100516.97;5086200;27;66977;-34
2022/12/02 05:33:46;;;;;;;4.93;3.80;;;;;;;32.26;55.95;100514.84;5087923;27;70066;-37
2022/12/02 05:36:17;;;;;;;7.75;3.55;;;;;;;32.29;55.79;100514.38;5084514;27;65151;-35
2022/12/02 05:38:48;;;;;;;4.10;3.63;;;;;;;32.30;55.66;100516.03;5087092;27;70256;-36
2022/12/02 05:41:19;;;;;;;;;;;;;;;31.99;56.61;100515.34;5089764;27;65444;-39
2022/12/02 05:43:51;;;;;;;3.95;3.60;;;;;;;32.28;56.13;100507.28;5087216;27;69646;-37
2022/12/02 05:46:22;;;;;;;4.97;3.58;;;;;;;32.23;55.90;100480.88;5091856;27;66077;-36
2022/12/02 05:48:54;;;;;;;3.95;3.50;;;;;;;32.34;55.70;100495.47;5089497;27;70211;-37
2022/12/02 05:51:26;;;;;;;3.67;3.35;;;;;;;32.39;55.73;100484.72;5087704;27;65853;-37
2022/12/02 05:53:57;;;;;;;9.45;3.45;;;;;;;32.40;55.62;100478.25;5083358;27;69396;-36
2022/12/02 05:56:30;;;;;;;3.55;3.25;;;;;;;32.41;55.77;100479.88;5073524;27;65256;-36
2022/12/02 05:59:04;;;;;;;3.63;3.33;;;;;;;32.46;55.67;100492.78;5091481;27;70845;-37
2022/12/02 06:01:39;;;;;;;3.58;3.28;;;;;;;32.46;55.46;100474.59;5085359;27;66104;-36
2022/12/02 06:04:21;;;;;;;3.67;3.38;;;;;;;32.45;55.63;100470.19;5082732;27;69234;-35
2022/12/02 06:06:55;;;;;;;3.83;3.45;;;;;;;32.13;55.46;100406.56;5088892;27;65784;-35
2022/12/02 06:09:30;;;;;;;3.45;3.15;;;;;;;32.16;55.19;100400.66;5087521;27;69558;-35
2022/12/02 06:12:14;;;;;;;6.97;3.20;;;;;;;31.74;55.33;100330.31;5085698;27;65812;-36
2022/12/02 06:14:52;;;;;;;3.83;2.95;;;;;;;32.59;55.45;100459.06;5080706;27;70179;-35
2022/12/02 06:17:23;;;;;;;3.53;3.22;;;;;;;32.59;55.52;100448.22;5083700;27;65452;-35
2022/12/02 06:19:57;;;;;;;2.80;2.60;;;;;;;32.61;55.27;100457.75;5084269;27;70077;-35
2022/12/02 06:22:32;;;;;;;4.63;2.90;;;;;;;32.59;55.43;100442.78;5087323;27;66088;-34
2022/12/02 06:25:21;;;;;;;3.15;2.85;;;;;;;32.67;55.13;100439.69;5085824;27;69195;-34
2022/12/02 06:27:59;;;;;;;5.72;3.20;;;;;;;32.49;55.23;100414.38;5090114;27;66120;-35
2022/12/02 06:30:38;;;;;;;3.30;3.00;;;;;;;32.65;55.14;100441.81;5088842;27;70063;-34
2022/12/02 06:33:34;;;;;;;3.00;2.80;;;;;;;32.33;55.04;100384.44;5081292;27;65923;-35
2022/12/02 06:36:15;;;;;;;2.88;2.67;;;;;;;32.73;54.87;100455.00;5085564;27;70224;-34
2022/12/02 06:38:59;;;;;;;3.55;3.25;;;;;;;31.90;55.12;100326.88;5086534;27;66715;-34
2022/12/02 06:41:32;;;;;;;3.17;2.88;;;;;;;32.50;55.11;100396.19;5082756;27;70671;-34
2022/12/02 06:47:31;;;;;;;3.00;2.80;;;;;;;32.76;55.12;100443.63;5085731;27;69843;-34
2022/12/02 06:50:06;;;;;;;3.05;2.83;;;;;;;32.88;54.95;100436.28;5085634;27;66331;-34
2022/12/02 06:52:41;;;;;;;3.25;3.05;;;;;;;32.38;55.28;100351.97;5084091;27;70449;-34
2022/12/02 06:55:32;;;;;;;3.17;2.90;;;;;;;32.90;54.71;100439.56;5080190;27;67188;-35
2022/12/02 06:58:37;;;;;;;3.53;2.47;;;;;;;32.85;54.55;100444.91;5094489;27;70223;-34
2022/12/02 07:01:17;;;;;;;3.13;2.55;;;;;;;32.53;54.64;100359.59;5088162;27;65460;-34
2022/12/02 07:04:03;;;;;;;3.15;2.88;;;;;;;32.95;54.75;100455.13;5082041;27;70667;-34
2022/12/02 07:06:43;;;;;;;7.38;3.05;;;;;;;32.59;54.17;100361.31;5083813;27;66353;-35
2022/12/02 07:09:37;;;;;;;2.53;2.33;;;;;;;32.98;54.70;100413.06;5082533;27;69609;-36
2022/12/02 07:12:38;;;;;;;6.65;2.90;;;;;;;33.00;54.51;100427.25;5088157;27;65501;-35
2022/12/02 07:15:09;;;;;;;4.35;3.08;;;;;;;33.15;54.44;100419.34;5084047;27;70726;-35
2022/12/02 07:17:43;;;;;;;3.00;2.65;;;;;;;33.17;54.38;100417.22;5084433;27;65931;-35
2022/12/02 07:20:42;;;;;;;2.63;2.42;;;;;;;33.07;54.29;100417.88;5087792;27;69654;-34
2022/12/02 07:23:23;;;;;;;2.72;2.50;;;;;;;33.08;53.75;100397.78;5079698;27;66185;-36
2022/12/02 07:25:58;;;;;;;5.27;2.33;;;;;;;33.19;54.20;100414.25;5084216;27;69654;-34
2022/12/02 07:28:43;;;;;;;3.08;2.83;;;;;;;33.28;53.84;100407.34;5080396;27;66710;-34
2022/12/02 07:31:21;;;;;;;2.95;2.40;;;;;;;33.27;53.95;100403.78;5080703;27;69678;-34
2022/12/02 07:33:54;;;;;;;4.35;2.75;;;;;;;33.29;54.11;100404.38;5091858;27;65350;-35
2022/12/02 07:36:25;;;;;;;4.07;2.67;;;;;;;33.24;54.05;100387.97;5082083;27;69502;-35
2022/12/02 07:38:56;;;;;;;2.67;2.47;;;;;;;33.32;53.82;100401.16;5086322;27;66172;-35
2022/12/02 07:41:40;;;;;;;5.03;2.60;;;;;;;33.35;53.97;100397.94;5085447;27;70578;-35
2022/12/02 07:44:11;;;;;;;5.05;2.67;;;;;;;33.35;53.84;100394.41;5085979;27;66887;-37
2022/12/02 07:46:42;;;;;;;3.03;2.30;;;;;;;33.26;53.72;100380.38;5093047;27;69945;-35
2022/12/02 07:49:14;;;;;;;5.55;2.65;;;;;;;33.37;53.95;100390.34;5080509;27;66313;-36
2022/12/02 07:51:45;;;;;;;3.92;2.25;;;;;;;33.41;53.80;100384.44;5082884;27;68760;-35
2022/12/02 07:54:17;;;;;;;2.95;2.40;;;;;;;33.40;53.89;100377.31;5080139;27;65251;-39
2022/12/02 07:56:48;;;;;;;3.03;2.72;;;;;;;33.21;53.61;100358.59;5086339;27;69636;-35
2022/12/02 07:59:20;;;;;;;2.67;2.47;;;;;;;33.43;53.73;100382.25;5089268;27;66412;-35
2022/12/02 08:01:51;;;;;;;2.50;2.30;;;;;;;33.42;53.60;100380.63;5083125;27;70078;-36
2022/12/02 08:04:22;;;;;;;5.00;2.75;;;;;;;33.31;53.58;100357.91;5096687;27;65932;-34
2022/12/02 08:06:55;;;;;;;2.95;2.65;;;;;;;33.44;53.67;100373.88;5087704;27;70176;-35
2022/12/02 08:09:26;;;;;;;2.40;2.10;;;;;;;33.42;53.42;100364.31;5091842;27;65357;-35
2022/12/02 08:11:57;;;;;;;3.40;2.20;;;;;;;33.48;53.62;100376.91;5082139;27;69991;-38
2022/12/02 08:14:29;;;;;;;2.70;2.22;;;;;;;33.14;53.46;100322.59;5082550;27;66376;-35
2022/12/02 08:17:01;;;;;;;3.10;2.10;;;;;;;33.40;53.89;100366.44;5084487;27;69054;-36
2022/12/02 08:19:32;;;;;;;3.03;2.47;;;;;;;33.18;53.75;100334.59;5089354;27;66131;-35
2022/12/02 08:22:04;;;;;;;7.40;2.55;;;;;;;33.49;53.75;100392.13;5089489;27;70261;-34
2022/12/02 08:24:35;;;;;;;3.65;2.60;;;;;;;33.47;53.58;100378.81;5083270;27;65592;-37
2022/12/02 08:27:07;;;;;;;5.10;2.13;;;;;;;33.51;53.77;100384.56;5087706;27;70172;-35
2022/12/02 08:29:38;;;;;;;2.60;2.20;;;;;;;33.29;53.59;100343.72;5084750;27;66306;-36
2022/12/02 08:32:10;;;;;;;2.30;2.10;;;;;;;33.44;53.33;100378.50;5081952;27;70490;-35
2022/12/02 08:34:42;;;;;;;2.80;2.50;;;;;;;33.53;53.61;100383.25;5086624;27;65607;-35
2022/12/02 08:37:14;;;;;;;5.30;2.22;;;;;;;33.51;53.45;100384.56;5081192;27;69649;-35
2022/12/02 08:39:45;;;;;;;5.20;2.28;;;;;;;33.51;53.57;100387.28;5088029;27;66636;-35
2022/12/02 08:42:17;;;;;;;3.10;2.80;;;;;;;33.41;53.29;100368.94;5089764;27;69524;-35
2022/12/02 08:44:48;;;;;;;;;;;;;;;33.27;54.21;100392.09;5088058;27;65360;-34
2022/12/02 08:47:19;;;;;;;2.67;1.77;;;;;;;33.46;53.66;100379.03;5083052;27;69182;-36
2022/12/02 08:49:51;;;;;;;2.50;2.00;;;;;;;33.52;53.39;100391.66;5090328;27;66195;-36
2022/12/02 08:52:25;;;;;;;3.63;2.17;;;;;;;33.51;53.39;100384.56;5085204;27;43651;-37
2022/12/02 08:54:57;;;;;;;2.97;2.50;;;;;;;33.54;53.43;100387.66;5086144;27;66037;-34
2022/12/02 08:57:28;;;;;;;;;;;;;;;33.28;54.23;100385.59;5080453;27;70243;-34
2022/12/02 08:59:59;;;;;;;3.92;2.35;;;;;;;33.52;53.41;100391.66;5083680;27;66812;-35
2022/12/02 09:02:31;;;;;;;4.22;2.30;;;;;;;33.52;53.77;100391.66;5083670;27;70559;-35
2022/12/02 09:05:03;;;;;;;3.38;2.45;;;;;;;33.48;53.70;100390.50;5084200;27;66108;-36
2022/12/02 09:07:34;;;;;;;3.25;2.47;;;;;;;33.56;53.56;100414.56;5083526;27;70430;-37
2022/12/02 09:10:08;;;;;;;2.78;2.53;;;;;;;33.52;53.52;100402.53;5086782;27;66124;-35
2022/12/02 09:12:39;;;;;;;6.50;2.47;;;;;;;33.53;53.57;100415.91;5084329;27;69881;-34
2022/12/02 09:15:11;;;;;;;7.80;2.53;;;;;;;33.54;53.73;100411.28;5086226;27;66646;-35
2022/12/02 09:17:42;;;;;;;3.40;2.67;;;;;;;33.53;53.44;100415.91;5091694;27;69906;-36
2022/12/02 09:20:16;;;;;;;8.32;2.88;;;;;;;33.47;53.60;100418.78;5085569;27;66296;-34
2022/12/02 09:22:47;;;;;;;6.10;3.30;;;;;;;33.28;54.47;100416.31;5082676;27;70257;-34
2022/12/02 09:25:19;;;;;;;4.78;3.60;;;;;;;33.20;54.92;100424.88;5088445;27;66754;-37
2022/12/02 09:27:50;;;;;;;7.40;3.85;;;;;;;33.08;55.63;100418.69;5086677;27;69967;-35
2022/12/02 09:30:22;;;;;;;7.78;3.58;;;;;;;32.98;55.77;100424.75;5083308;27;66142;-34
2022/12/02 09:32:53;;;;;;;6.43;3.55;;;;;;;32.98;56.18;100434.78;5081151;27;70460;-34
2022/12/02 09:35:24;;;;;;;10.27;3.70;;;;;;;32.92;56.64;100437.41;5086363;27;64377;-34
2022/12/02 09:37:56;;;;;;;8.45;3.53;;;;;;;32.80;56.87;100423.09;5068746;27;68893;-36
2022/12/02 09:40:27;;;;;;;;;;;;;;;32.63;57.63;100447.50;5085808;27;66362;-34
2022/12/02 09:42:59;;;;;;;8.02;3.78;;;;;;;32.79;57.54;100453.19;5084704;27;69729;-34
2022/12/02 09:45:31;;;;;;;9.63;4.00;;;;;;;32.75;57.56;100441.19;5084904;27;66698;-37
2022/12/02 09:48:03;;;;;;;8.40;4.05;;;;;;;32.68;57.75;100446.75;5093299;27;69855;-36
2022/12/02 09:50:37;;;;;;;8.65;3.88;;;;;;;32.66;57.65;100438.84;5081715;27;65902;-34
2022/12/02 09:53:14;;;;;;;21.55;4.60;;;;;;;32.41;57.79;100398.44;5081625;27;70197;-35
2022/12/02 09:55:46;;;;;;;29.80;4.78;;;;;;;32.69;58.22;100454.66;5082402;27;65693;-35
2022/12/02 09:58:25;;;;;;;;;;;;;;;32.49;59.09;100465.97;5089827;27;70167;-35
2022/12/02 10:00:56;;;;;;;26.10;4.68;;;;;;;32.68;58.62;100468.47;5084971;27;65282;-34
2022/12/02 10:03:29;;;;;;;22.13;5.25;;;;;;;32.62;58.54;100474.88;5084149;27;70480;-37
2022/12/02 10:06:03;;;;;;;11.63;4.57;;;;;;;32.59;58.76;100470.75;5082192;27;65139;-34
2022/12/02 10:08:39;;;;;;;28.55;5.18;;;;;;;32.58;58.73;100482.69;5089334;27;69595;-35
2022/12/02 10:11:21;;;;;;;22.23;4.60;;;;;;;32.21;58.89;100433.34;5066844;27;64249;-38
2022/12/02 10:13:54;;;;;;;15.95;5.40;;;;;;;32.65;59.00;100505.13;5082655;27;70021;-36
2022/12/02 10:16:28;;;;;;;22.27;4.97;;;;;;;32.66;59.12;100505.94;5082265;27;65475;-34
2022/12/02 10:19:03;;;;;;;31.35;4.95;;;;;;;32.28;59.35;100448.38;5083341;27;70822;-37
2022/12/02 10:21:34;;;;;;;29.48;5.70;;;;;;;32.59;59.54;100507.94;5085137;27;66636;-37
2022/12/02 10:24:12;;;;;;;23.33;6.30;;;;;;;32.61;59.17;100527.53;5082591;27;69793;-34
2022/12/02 10:26:48;;;;;;;30.63;5.53;;;;;;;32.64;59.45;100524.34;5086445;27;65694;-35
2022/12/02 10:29:27;;;;;;;28.42;6.05;;;;;;;32.38;59.55;100490.41;5087667;27;69707;-39
2022/12/02 10:32:01;;;;;;;25.08;5.18;;;;;;;32.23;59.56;100478.16;5081001;27;65662;-38
2022/12/02 10:34:34;;;;;;;27.25;5.28;;;;;;;32.49;59.72;100514.00;5090353;27;70200;-35
2022/12/02 10:37:27;;;;;;;21.38;5.40;;;;;;;32.48;59.63;100521.34;5065638;27;67232;-35
2022/12/02 10:40:18;;;;;;;25.65;6.10;;;;;;;32.52;59.91;100545.28;5083037;27;70905;-34
2022/12/02 10:43:09;;;;;;;39.05;6.43;;;;;;;32.41;59.86;100528.75;5087856;27;65367;-34
2022/12/02 10:45:55;;;;;;;31.52;5.13;;;;;;;32.52;59.97;100537.13;5083972;27;70949;-39
2022/12/02 10:48:27;;;;;;;25.75;5.75;;;;;;;32.60;60.65;100547.63;5085894;27;65592;-36
2022/12/02 10:50:59;;;;;;;25.15;6.13;;;;;;;32.60;60.31;100544.91;5083601;27;70226;-36
2022/12/02 10:53:31;;;;;;;15.07;6.22;;;;;;;32.60;60.34;100542.19;5083700;27;65693;-35
2022/12/02 10:56:02;;;;;;;24.50;6.35;;;;;;;32.51;60.92;100530.03;5086645;27;70252;-35
2022/12/02 10:58:34;;;;;;;12.73;5.90;;;;;;;32.54;61.17;100545.84;5088930;27;65703;-36
2022/12/02 11:01:10;;;;;;;21.00;6.13;;;;;;;32.45;61.97;100531.78;5085590;27;69330;-35
2022/12/02 11:03:42;;;;;;;19.90;6.88;;;;;;;32.57;62.45;100542.66;5082035;27;66104;-34
2022/12/02 11:06:20;;;;;;;26.33;6.65;;;;;;;32.52;62.58;100545.28;5096965;27;69921;-37
2022/12/02 11:08:56;;;;;;;20.35;6.55;;;;;;;32.05;63.07;100476.41;5085745;27;66407;-36
2022/12/02 11:11:48;;;;;;;17.42;6.15;;;;;;;32.61;61.67;100554.69;5079652;27;70045;-34
2022/12/02 11:14:37;;;;;;;;;;;;;;;32.41;62.34;100569.47;5080429;27;66448;-36
2022/12/02 11:17:11;;;;;;;17.85;7.38;;;;;;;32.42;60.46;100600.97;5084289;27;70113;-34
2022/12/02 11:19:45;;;;;;;21.00;8.02;;;;;;;31.97;59.76;100517.47;5087805;27;66203;-33
2022/12/02 11:23:00;;;;;;;43.42;11.45;;;;;;;32.70;59.85;100657.28;5081375;27;70370;-36
2022/12/02 11:25:48;;;;;;;30.90;11.40;;;;;;;32.80;60.54;100666.72;5078014;27;66194;-34
2022/12/02 11:28:28;;;;;;;21.88;10.50;;;;;;;32.84;60.81;100666.00;5080997;27;69185;-34
2022/12/02 11:31:12;;;;;;;27.27;9.20;;;;;;;32.82;60.70;100668.16;5084692;27;65680;-34
2022/12/02 11:33:44;;;;;;;20.90;8.82;;;;;;;32.91;60.52;100668.59;5079840;27;69957;-35
2022/12/02 11:36:24;;;;;;;17.25;8.35;;;;;;;32.44;60.66;100603.47;5081728;27;66548;-36
2022/12/02 11:38:55;;;;;;;20.40;7.93;;;;;;;32.91;60.47;100696.59;5085500;27;70774;-35
2022/12/02 11:41:51;;;;;;;20.33;8.43;;;;;;;32.76;61.51;100682.66;5084130;27;66082;-34
2022/12/02 11:44:28;;;;;;;23.08;7.50;;;;;;;32.30;61.50;100602.88;5059083;27;69411;-36
2022/12/02 11:47:04;;;;;;;22.58;6.55;;;;;;;32.87;60.91;100689.97;5070399;27;65676;-37
2022/12/02 11:49:42;;;;;;;15.30;6.22;;;;;;;32.80;61.10;100683.84;5096736;27;69607;-35
2022/12/02 11:52:17;;;;;;;15.35;5.38;;;;;;;32.75;60.91;100691.88;5086806;27;66415;-36
2022/12/02 11:55:03;;;;;;;19.92;5.30;;;;;;;32.81;60.67;100693.63;5081918;27;70033;-33
2022/12/02 11:57:50;;;;;;;16.83;5.80;;;;;;;32.47;60.84;100658.13;5088767;27;64558;-36
2022/12/02 12:00:25;;;;;;;21.75;5.03;;;;;;;32.70;60.42;100689.06;5084010;27;70399;-34
2022/12/02 12:03:16;;;;;;;12.50;4.47;;;;;;;32.69;60.57;100698.28;5080865;27;65145;-34
2022/12/02 12:06:21;;;;;;;15.57;4.35;;;;;;;32.56;61.22;100698.50;5085520;27;70508;-34